createdAt,value
2017-09-21T00:01:37.642Z,99521
2017-09-21T00:04:05.729Z,99526
2017-09-21T00:06:33.802Z,99524
2017-09-21T00:09:01.891Z,99515
2017-09-21T00:11:29.977Z,99512
2017-09-21T00:13:58.067Z,99517
2017-09-21T00:16:26.917Z,99516
2017-09-21T00:18:55.005Z,99525
2017-09-21T00:21:23.089Z,99522
2017-09-21T00:23:51.184Z,99521
2017-09-21T00:26:20.035Z,99516
2017-09-21T00:28:48.119Z,99520
2017-09-21T00:31:16.197Z,99513
2017-09-21T00:33:44.282Z,99514
2017-09-21T00:36:12.369Z,99525
2017-09-21T00:38:41.220Z,99529
2017-09-21T00:41:09.308Z,99529
2017-09-21T00:43:37.401Z,99536
2017-09-21T00:46:06.247Z,99535
2017-09-21T00:48:34.337Z,99536
2017-09-21T00:51:02.423Z,99540
2017-09-21T00:53:30.509Z,99536
2017-09-21T00:55:59.363Z,99537
2017-09-21T00:58:27.456Z,99529
2017-09-21T01:00:55.549Z,99541
2017-09-21T01:03:24.399Z,99537
2017-09-21T01:05:52.468Z,99535
2017-09-21T01:08:20.555Z,99531
2017-09-21T01:10:48.628Z,99533
2017-09-21T01:13:16.716Z,99534
2017-09-21T01:15:45.800Z,99528
2017-09-21T01:18:13.883Z,99530
2017-09-21T01:20:41.955Z,99531
2017-09-21T01:23:10.039Z,99527
2017-09-21T01:25:38.880Z,99536
2017-09-21T01:28:07.718Z,99538
2017-09-21T01:30:36.560Z,99538
2017-09-21T01:33:04.640Z,99542
2017-09-21T01:35:32.723Z,99540
2017-09-21T01:38:00.805Z,99542
2017-09-21T01:40:28.888Z,99549
2017-09-21T01:42:56.970Z,99566
2017-09-21T01:45:25.491Z,99563
2017-09-21T01:47:53.571Z,99562
2017-09-21T01:50:22.403Z,99556
2017-09-21T01:52:50.491Z,99556
2017-09-21T01:55:19.322Z,99562
2017-09-21T01:57:47.403Z,99553
2017-09-21T02:00:15.480Z,99552
2017-09-21T02:02:43.556Z,99552
2017-09-21T02:05:11.635Z,99552
2017-09-21T02:07:39.709Z,99557
2017-09-21T02:10:07.795Z,99554
2017-09-21T02:12:35.871Z,99545
2017-09-21T02:15:03.956Z,99544
2017-09-21T02:17:32.037Z,99542
2017-09-21T02:20:00.883Z,99541
2017-09-21T02:22:28.960Z,99548
2017-09-21T02:24:57.051Z,99543
2017-09-21T02:27:25.134Z,99539
2017-09-21T02:29:53.208Z,99533
2017-09-21T02:32:21.276Z,99526
2017-09-21T02:34:49.358Z,99531
2017-09-21T02:37:17.440Z,99524
2017-09-21T02:39:46.284Z,99532
2017-09-21T02:42:14.355Z,99523
2017-09-21T02:44:42.430Z,99530
2017-09-21T02:47:10.504Z,99517
2017-09-21T02:49:38.591Z,99514
2017-09-21T02:52:06.664Z,99509
2017-09-21T02:54:34.747Z,99505
2017-09-21T02:57:02.820Z,99497
2017-09-21T02:59:30.903Z,99506
2017-09-21T03:01:59.735Z,99516
2017-09-21T03:04:27.819Z,99508
2017-09-21T03:06:55.899Z,99512
2017-09-21T03:09:23.988Z,99503
2017-09-21T03:11:52.060Z,99511
2017-09-21T03:14:20.143Z,99514
2017-09-21T03:16:48.208Z,99509
2017-09-21T03:19:16.295Z,99511
2017-09-21T03:21:44.364Z,99514
2017-09-21T03:24:12.438Z,99516
2017-09-21T03:26:41.292Z,99513
2017-09-21T03:29:09.377Z,99515
2017-09-21T03:31:37.447Z,99512
2017-09-21T03:34:05.543Z,99519
2017-09-21T03:36:33.620Z,99507
2017-09-21T03:39:01.691Z,99505
2017-09-21T03:41:29.764Z,99507
2017-09-21T03:43:58.628Z,99497
2017-09-21T03:46:26.698Z,99503
2017-09-21T03:48:54.775Z,99509
2017-09-21T03:51:22.843Z,99503
2017-09-21T03:53:50.941Z,99502
2017-09-21T03:56:19.010Z,99504
2017-09-21T03:58:47.095Z,99496
2017-09-21T04:01:15.933Z,99501
2017-09-21T04:03:44.023Z,99500
2017-09-21T04:06:12.094Z,99508
2017-09-21T04:08:40.189Z,99502
2017-09-21T04:11:08.257Z,99502
2017-09-21T04:13:36.352Z,99506
2017-09-21T04:16:05.190Z,99500
2017-09-21T04:18:33.276Z,99505
2017-09-21T04:21:01.361Z,99506
2017-09-21T04:23:29.455Z,99504
2017-09-21T04:25:57.519Z,99512
2017-09-21T04:28:25.599Z,99505
2017-09-21T04:30:53.673Z,99512
2017-09-21T04:33:21.756Z,99510
2017-09-21T04:35:50.613Z,99517
2017-09-21T04:38:18.684Z,99516
2017-09-21T04:40:46.767Z,99512
2017-09-21T04:43:14.842Z,99512
2017-09-21T04:45:42.922Z,99516
2017-09-21T04:48:11.000Z,99509
2017-09-21T04:50:39.857Z,99515
2017-09-21T04:53:07.929Z,99520
2017-09-21T04:55:36.009Z,99513
2017-09-21T04:58:04.072Z,99526
2017-09-21T05:00:32.167Z,99524
2017-09-21T05:03:00.235Z,99525
2017-09-21T05:05:28.308Z,99520
2017-09-21T05:07:56.375Z,99517
2017-09-21T05:10:24.463Z,99521
2017-09-21T05:12:52.527Z,99521
2017-09-21T05:15:20.616Z,99529
2017-09-21T05:17:48.730Z,99517
2017-09-21T05:20:17.570Z,99514
2017-09-21T05:22:45.645Z,99516
2017-09-21T05:25:13.725Z,99518
2017-09-21T05:27:41.792Z,99514
2017-09-21T05:30:09.905Z,99517
2017-09-21T05:32:38.000Z,99519
2017-09-21T05:35:06.102Z,99518
2017-09-21T05:37:34.180Z,99523
2017-09-21T05:40:02.287Z,99517
2017-09-21T05:42:30.359Z,99532
2017-09-21T05:44:58.468Z,99520
2017-09-21T05:47:26.537Z,99519
2017-09-21T05:49:54.623Z,99524
2017-09-21T05:52:22.751Z,99531
2017-09-21T05:54:50.856Z,99521
2017-09-21T05:57:18.955Z,99526
2017-09-21T05:59:47.039Z,99530
2017-09-21T06:02:15.892Z,99530
2017-09-21T06:04:43.987Z,99532
2017-09-21T06:07:12.076Z,99531
2017-09-21T06:09:40.165Z,99523
2017-09-21T06:12:09.028Z,99527
2017-09-21T06:14:37.451Z,99538
2017-09-21T06:17:05.524Z,99540
2017-09-21T06:19:33.615Z,99539
2017-09-21T06:22:02.454Z,99540
2017-09-21T06:24:30.528Z,99539
2017-09-21T06:26:58.600Z,99533
2017-09-21T06:29:26.684Z,99545
2017-09-21T06:31:56.703Z,99541
2017-09-21T06:34:25.552Z,99546
2017-09-21T06:36:53.622Z,99541
2017-09-21T06:39:21.711Z,99540
2017-09-21T06:41:49.787Z,99538
2017-09-21T06:44:17.875Z,99540
2017-09-21T06:46:45.959Z,99543
2017-09-21T06:49:14.816Z,99533
2017-09-21T06:51:42.888Z,99542
2017-09-21T06:54:10.971Z,99534
2017-09-21T06:56:39.064Z,99540
2017-09-21T06:59:07.924Z,99540
2017-09-21T07:01:36.001Z,99547
2017-09-21T07:04:04.091Z,99539
2017-09-21T07:06:32.164Z,99550
2017-09-21T07:09:00.239Z,99547
2017-09-21T07:11:28.323Z,99548
2017-09-21T07:13:57.167Z,99560
2017-09-21T07:16:25.254Z,99556
2017-09-21T07:18:53.316Z,99564
2017-09-21T07:21:21.400Z,99557
2017-09-21T07:23:49.475Z,99565
2017-09-21T07:26:17.560Z,99560
2017-09-21T07:28:45.666Z,99569
2017-09-21T07:31:13.751Z,99565
2017-09-21T07:33:42.601Z,99564
2017-09-21T07:36:10.679Z,99570
2017-09-21T07:38:39.524Z,99565
2017-09-21T07:41:07.607Z,99570
2017-09-21T07:43:35.686Z,99580
2017-09-21T07:46:03.775Z,99572
2017-09-21T07:48:31.852Z,99572
2017-09-21T07:50:59.948Z,99571
2017-09-21T07:53:28.783Z,99575
2017-09-21T07:55:56.883Z,99567
2017-09-21T07:58:24.954Z,99579
2017-09-21T08:00:53.048Z,99579
2017-09-21T08:03:21.897Z,99579
2017-09-21T08:05:49.983Z,99575
2017-09-21T08:08:18.056Z,99582
2017-09-21T08:10:46.139Z,99589
2017-09-21T08:13:14.225Z,99581
2017-09-21T08:15:43.080Z,99586
2017-09-21T08:18:11.150Z,99583
2017-09-21T08:20:39.256Z,99577
2017-09-21T08:23:07.329Z,99578
2017-09-21T08:25:36.195Z,99578
2017-09-21T08:28:04.287Z,99587
2017-09-21T08:30:32.363Z,99591
2017-09-21T08:33:01.211Z,99585
2017-09-21T08:35:29.290Z,99589
2017-09-21T08:37:57.381Z,99580
2017-09-21T08:40:25.466Z,99580
2017-09-21T08:42:53.539Z,99582
2017-09-21T08:45:21.619Z,99580
2017-09-21T08:47:50.455Z,99579
2017-09-21T08:50:19.312Z,99576
2017-09-21T08:52:48.375Z,99577
2017-09-21T08:55:17.480Z,99585
2017-09-21T08:57:45.564Z,99581
2017-09-21T09:00:14.423Z,99573
2017-09-21T09:02:42.507Z,99583
2017-09-21T09:05:10.582Z,99567
2017-09-21T09:07:38.662Z,99567
2017-09-21T09:10:06.752Z,99573
2017-09-21T09:12:35.604Z,99576
2017-09-21T09:15:03.692Z,99570
2017-09-21T09:17:31.772Z,99573
2017-09-21T09:19:59.852Z,99556
2017-09-21T09:22:27.937Z,99570
2017-09-21T09:24:56.790Z,99566
2017-09-21T09:27:24.875Z,99562
2017-09-21T09:29:52.952Z,99557
2017-09-21T09:32:21.035Z,99554
2017-09-21T09:34:49.883Z,99557
2017-09-21T09:37:17.967Z,99555
2017-09-21T09:39:46.051Z,99561
2017-09-21T09:42:14.140Z,99551
2017-09-21T09:44:42.707Z,99555
2017-09-21T09:47:10.797Z,99550
2017-09-21T09:49:38.872Z,99560
2017-09-21T09:52:07.746Z,99554
2017-09-21T09:54:35.818Z,99549
2017-09-21T09:57:03.898Z,99549
2017-09-21T09:59:31.976Z,99553
2017-09-21T10:02:00.841Z,99543
2017-09-21T10:04:28.918Z,99541
2017-09-21T10:06:57.008Z,99544
2017-09-21T10:09:25.087Z,99544
2017-09-21T10:11:53.183Z,99544
2017-09-21T10:14:21.273Z,99531
2017-09-21T10:16:49.377Z,99540
2017-09-21T10:19:17.455Z,99541
2017-09-21T10:21:45.548Z,99539
2017-09-21T10:24:13.642Z,99538
2017-09-21T10:26:42.503Z,99533
2017-09-21T10:29:10.590Z,99521
2017-09-21T10:31:39.448Z,99527
2017-09-21T10:34:07.540Z,99526
2017-09-21T10:36:35.627Z,99511
2017-09-21T10:39:04.475Z,99517
2017-09-21T10:41:32.561Z,99519
2017-09-21T10:44:00.644Z,99514
2017-09-21T10:46:28.740Z,99502
2017-09-21T10:48:57.596Z,99508
2017-09-21T10:51:25.685Z,99504
2017-09-21T10:53:53.763Z,99509
2017-09-21T10:56:21.856Z,99506
2017-09-21T10:58:50.704Z,99498
2017-09-21T11:01:18.786Z,99492
2017-09-21T11:03:46.875Z,99487
2017-09-21T11:06:14.960Z,99493
2017-09-21T11:08:43.806Z,99480
2017-09-21T11:11:12.655Z,99478
2017-09-21T11:13:41.501Z,99488
2017-09-21T11:16:09.583Z,99472
2017-09-21T11:18:37.660Z,99466
2017-09-21T11:21:05.784Z,99463
2017-09-21T11:23:33.860Z,99467
2017-09-21T11:26:01.947Z,99461
2017-09-21T11:28:30.028Z,99458
2017-09-21T11:30:58.116Z,99456
2017-09-21T11:33:26.207Z,99462
2017-09-21T11:35:54.296Z,99456
2017-09-21T11:38:23.144Z,99447
2017-09-21T11:40:51.223Z,99445
2017-09-21T11:43:19.324Z,99446
2017-09-21T11:45:48.180Z,99441
2017-09-21T11:48:16.267Z,99440
2017-09-21T11:50:44.356Z,99438
2017-09-21T11:53:13.216Z,99437
2017-09-21T11:55:41.293Z,99430
2017-09-21T11:58:09.390Z,99431
2017-09-21T12:00:37.463Z,99435
2017-09-21T12:03:06.316Z,99429
2017-09-21T12:05:34.401Z,99426
2017-09-21T12:08:02.479Z,99419
2017-09-21T12:10:30.550Z,99408
2017-09-21T12:12:58.684Z,99422
2017-09-21T12:15:26.763Z,99414
2017-09-21T12:17:54.845Z,99418
2017-09-21T12:20:23.692Z,99413
2017-09-21T12:22:52.560Z,99412
2017-09-21T12:25:20.637Z,99409
2017-09-21T12:27:48.724Z,99406
2017-09-21T12:30:17.573Z,99410
2017-09-21T12:32:45.677Z,99408
2017-09-21T12:35:13.780Z,99400
2017-09-21T12:37:41.831Z,99398
2017-09-21T12:40:10.684Z,99389
2017-09-21T12:42:38.780Z,99394
2017-09-21T12:45:06.852Z,99396
2017-09-21T12:47:34.944Z,99389
2017-09-21T12:50:03.791Z,99384
2017-09-21T12:52:31.881Z,99374
2017-09-21T12:55:00.977Z,99380
2017-09-21T12:57:29.058Z,99389
2017-09-21T12:59:57.145Z,99373
2017-09-21T13:02:25.995Z,99371
2017-09-21T13:04:54.068Z,99368
2017-09-21T13:07:22.146Z,99366
2017-09-21T13:09:50.220Z,99368
2017-09-21T13:12:18.312Z,99368
2017-09-21T13:14:46.384Z,99362
2017-09-21T13:17:14.460Z,99363
2017-09-21T13:19:42.542Z,99363
2017-09-21T13:22:11.391Z,99363
2017-09-21T13:24:39.464Z,99359
2017-09-21T13:27:07.545Z,99361
2017-09-21T13:29:35.619Z,99345
2017-09-21T13:32:03.695Z,99345
2017-09-21T13:34:31.772Z,99340
2017-09-21T13:36:59.857Z,99344
2017-09-21T13:39:27.929Z,99337
2017-09-21T13:41:56.008Z,99341
2017-09-21T13:44:24.077Z,99327
2017-09-21T13:46:52.195Z,99332
2017-09-21T13:49:20.277Z,99328
2017-09-21T13:51:48.357Z,99335
2017-09-21T13:54:16.439Z,99330
2017-09-21T13:56:44.523Z,99331
2017-09-21T13:59:12.599Z,99326
2017-09-21T14:01:40.675Z,99319
2017-09-21T14:04:08.757Z,99328
2017-09-21T14:06:36.824Z,99323
2017-09-21T14:09:04.896Z,99323
2017-09-21T14:11:32.958Z,99326
2017-09-21T14:14:01.058Z,99320
2017-09-21T14:16:29.895Z,99321
2017-09-21T14:18:58.727Z,99313
2017-09-21T14:21:26.803Z,99316
2017-09-21T14:23:54.881Z,99322
2017-09-21T14:26:23.738Z,99308
2017-09-21T14:28:51.824Z,99308
2017-09-21T14:31:19.892Z,99314
2017-09-21T14:33:47.964Z,99309
2017-09-21T14:36:16.037Z,99305
2017-09-21T14:38:44.123Z,99306
2017-09-21T14:41:12.188Z,99310
2017-09-21T14:43:40.276Z,99304
2017-09-21T14:46:08.344Z,99304
2017-09-21T14:48:36.416Z,99304
2017-09-21T14:51:04.486Z,99305
2017-09-21T14:53:32.564Z,99308
2017-09-21T14:56:00.628Z,99305
2017-09-21T14:58:28.703Z,99312
2017-09-21T15:00:56.778Z,99300
2017-09-21T15:03:24.844Z,99298
2017-09-21T15:05:52.907Z,99305
2017-09-21T15:08:20.989Z,99305
2017-09-21T15:10:49.047Z,99300
2017-09-21T15:13:17.143Z,99309
2017-09-21T15:15:45.212Z,99311
2017-09-21T15:18:13.319Z,99306
2017-09-21T15:20:41.406Z,99306
2017-09-21T15:23:09.493Z,99298
2017-09-21T15:25:37.567Z,99310
2017-09-21T15:28:05.645Z,99304
2017-09-21T15:30:33.865Z,99307
2017-09-21T15:33:02.013Z,99298
2017-09-21T15:35:30.108Z,99309
2017-09-21T15:37:59.035Z,99305
2017-09-21T15:40:27.128Z,99307
2017-09-21T15:42:55.234Z,99316
2017-09-21T15:45:23.316Z,99309
2017-09-21T15:47:52.172Z,99318
2017-09-21T15:50:20.267Z,99315
2017-09-21T15:52:48.355Z,99319
2017-09-21T15:55:17.242Z,99324
2017-09-21T15:57:46.195Z,99325
2017-09-21T16:00:14.295Z,99321
2017-09-21T16:02:42.372Z,99315
2017-09-21T16:05:10.464Z,99323
2017-09-21T16:07:39.337Z,99326
2017-09-21T16:10:07.439Z,99309
2017-09-21T16:12:36.293Z,99316
2017-09-21T16:15:04.376Z,99315
2017-09-21T16:17:32.598Z,99321
2017-09-21T16:20:01.471Z,99323
2017-09-21T16:22:29.567Z,99327
2017-09-21T16:24:57.652Z,99325
2017-09-21T16:27:25.747Z,99321
2017-09-21T16:29:53.851Z,99321
2017-09-21T16:32:22.714Z,99319
2017-09-21T16:34:50.798Z,99316
2017-09-21T16:37:18.896Z,99318
2017-09-21T16:39:47.752Z,99319
2017-09-21T16:42:15.846Z,99310
2017-09-21T16:44:44.686Z,99321
2017-09-21T16:47:12.762Z,99318
2017-09-21T16:49:40.842Z,99317
2017-09-21T16:52:08.933Z,99313
2017-09-21T16:54:37.019Z,99315
2017-09-21T16:57:05.103Z,99323
2017-09-21T16:59:33.972Z,99315
2017-09-21T17:02:02.047Z,99321
2017-09-21T17:04:30.212Z,99314
2017-09-21T17:06:58.300Z,99316
2017-09-21T17:09:26.379Z,99317
2017-09-21T17:11:55.245Z,99319
2017-09-21T17:14:23.332Z,99315
2017-09-21T17:16:51.416Z,99312
2017-09-21T17:19:20.266Z,99314
2017-09-21T17:21:49.117Z,99307
2017-09-21T17:24:17.188Z,99323
2017-09-21T17:26:46.115Z,99328
2017-09-21T17:29:14.195Z,99325
2017-09-21T17:31:42.273Z,99324
2017-09-21T17:34:10.359Z,99320
2017-09-21T17:36:38.427Z,99327
2017-09-21T17:39:06.515Z,99320
2017-09-21T17:41:34.587Z,99328
2017-09-21T17:44:02.664Z,99315
2017-09-21T17:46:31.515Z,99324
2017-09-21T17:48:59.600Z,99322
2017-09-21T17:51:27.680Z,99326
2017-09-21T17:53:55.767Z,99325
2017-09-21T17:56:23.844Z,99329
2017-09-21T17:58:51.923Z,99319
2017-09-21T18:01:20.772Z,99333
2017-09-21T18:03:48.847Z,99326
2017-09-21T18:06:16.925Z,99330
2017-09-21T18:08:45.012Z,99339
2017-09-21T18:11:13.091Z,99332
2017-09-21T18:13:41.170Z,99338
2017-09-21T18:16:09.242Z,99345
2017-09-21T18:18:37.323Z,99346
2017-09-21T18:21:06.164Z,99341
2017-09-21T18:23:34.250Z,99345
2017-09-21T18:26:02.349Z,99350
2017-09-21T18:28:30.448Z,99350
2017-09-21T18:30:59.292Z,99349
2017-09-21T18:33:27.367Z,99349
2017-09-21T18:35:55.476Z,99347
2017-09-21T18:38:24.324Z,99344
2017-09-21T18:40:52.431Z,99352
2017-09-21T18:43:21.277Z,99357
2017-09-21T18:45:49.361Z,99362
2017-09-21T18:48:17.443Z,99372
2017-09-21T18:50:45.540Z,99361
2017-09-21T18:53:14.383Z,99367
2017-09-21T18:55:42.481Z,99371
2017-09-21T18:58:10.567Z,99361
2017-09-21T19:00:38.646Z,99368
2017-09-21T19:03:07.503Z,99363
2017-09-21T19:05:35.604Z,99363
2017-09-21T19:08:03.689Z,99361
2017-09-21T19:10:32.523Z,99372
2017-09-21T19:13:00.612Z,99372
2017-09-21T19:15:28.692Z,99370
2017-09-21T19:17:56.785Z,99371
2017-09-21T19:20:24.861Z,99370
2017-09-21T19:22:53.715Z,99364
2017-09-21T19:25:21.806Z,99367
2017-09-21T19:27:49.892Z,99364
2017-09-21T19:30:18.052Z,99370
2017-09-21T19:32:46.141Z,99365
2017-09-21T19:35:14.223Z,99375
2017-09-21T19:37:43.129Z,99375
2017-09-21T19:40:11.970Z,99377
2017-09-21T19:42:40.127Z,99373
2017-09-21T19:45:08.221Z,99371
2017-09-21T19:47:36.368Z,99373
2017-09-21T19:50:05.261Z,99368
2017-09-21T19:52:34.177Z,99368
2017-09-21T19:55:02.268Z,99376
2017-09-21T19:57:30.362Z,99376
2017-09-21T19:59:59.208Z,99370
2017-09-21T20:02:27.351Z,99373
2017-09-21T20:04:55.429Z,99363
2017-09-21T20:07:23.515Z,99379
2017-09-21T20:09:52.369Z,99369
2017-09-21T20:12:20.443Z,99372
2017-09-21T20:14:48.764Z,99373
2017-09-21T20:17:16.841Z,99367
2017-09-21T20:19:45.002Z,99377
2017-09-21T20:22:13.087Z,99374
2017-09-21T20:24:41.181Z,99377
2017-09-21T20:27:09.306Z,99371
2017-09-21T20:29:37.392Z,99375
2017-09-21T20:32:05.471Z,99371
2017-09-21T20:34:33.561Z,99375
2017-09-21T20:37:01.641Z,99378
2017-09-21T20:39:29.729Z,99380
2017-09-21T20:41:57.812Z,99384
2017-09-21T20:44:26.679Z,99384
2017-09-21T20:46:54.767Z,99388
2017-09-21T20:49:23.629Z,99385
2017-09-21T20:51:51.711Z,99385
2017-09-21T20:54:19.799Z,99385
2017-09-21T20:56:47.871Z,99381
2017-09-21T20:59:15.951Z,99383
2017-09-21T21:01:44.803Z,99384
2017-09-21T21:04:12.897Z,99382
2017-09-21T21:06:40.975Z,99374
2017-09-21T21:09:09.069Z,99379
2017-09-21T21:11:37.912Z,99376
2017-09-21T21:14:06.008Z,99371
2017-09-21T21:16:34.084Z,99369
2017-09-21T21:19:02.175Z,99367
2017-09-21T21:21:31.025Z,99365
2017-09-21T21:23:59.124Z,99364
2017-09-21T21:26:27.200Z,99369
2017-09-21T21:28:56.061Z,99369
2017-09-21T21:31:24.148Z,99377
2017-09-21T21:33:52.239Z,99370
2017-09-21T21:36:21.100Z,99369
2017-09-21T21:38:49.188Z,99372
2017-09-21T21:41:17.260Z,99371
2017-09-21T21:43:45.351Z,99372
2017-09-21T21:46:14.203Z,99386
2017-09-21T21:48:42.296Z,99384
2017-09-21T21:51:10.368Z,99384
2017-09-21T21:53:39.319Z,99387
2017-09-21T21:56:07.404Z,99378
2017-09-21T21:58:36.256Z,99381
2017-09-21T22:01:05.211Z,99387
2017-09-21T22:03:33.319Z,99388
2017-09-21T22:06:02.164Z,99391
2017-09-21T22:08:30.255Z,99384
2017-09-21T22:10:58.326Z,99389
2017-09-21T22:13:26.407Z,99384
2017-09-21T22:15:54.488Z,99394
2017-09-21T22:18:23.349Z,99393
2017-09-21T22:20:51.429Z,99397
2017-09-21T22:23:19.523Z,99395
2017-09-21T22:25:47.595Z,99391
2017-09-21T22:28:16.451Z,99403
2017-09-21T22:30:44.528Z,99403
2017-09-21T22:33:12.612Z,99406
2017-09-21T22:35:40.683Z,99404
2017-09-21T22:38:08.770Z,99407
2017-09-21T22:40:36.839Z,99404
2017-09-21T22:43:04.924Z,99402
2017-09-21T22:45:33.769Z,99402
2017-09-21T22:48:01.872Z,99398
2017-09-21T22:50:29.949Z,99397
2017-09-21T22:52:58.044Z,99396
2017-09-21T22:55:26.892Z,99408
2017-09-21T22:57:54.960Z,99412
2017-09-21T23:00:23.047Z,99413
2017-09-21T23:02:51.131Z,99411
2017-09-21T23:05:20.248Z,99407
2017-09-21T23:07:49.092Z,99413
2017-09-21T23:10:17.169Z,99409
2017-09-21T23:12:45.243Z,99410
2017-09-21T23:15:13.327Z,99417
2017-09-21T23:17:41.407Z,99410
2017-09-21T23:20:09.491Z,99413
2017-09-21T23:22:38.336Z,99415
2017-09-21T23:25:06.419Z,99421
2017-09-21T23:27:34.501Z,99425
2017-09-21T23:30:02.590Z,99428
2017-09-21T23:32:30.668Z,99421
2017-09-21T23:34:58.742Z,99412
2017-09-21T23:37:27.599Z,99423
2017-09-21T23:39:55.687Z,99410
2017-09-21T23:42:24.559Z,99422
2017-09-21T23:44:52.643Z,99428
2017-09-21T23:47:20.722Z,99429
2017-09-21T23:49:48.807Z,99427
2017-09-21T23:52:16.911Z,99421
2017-09-21T23:54:44.997Z,99427
2017-09-21T23:57:13.318Z,99424
2017-09-21T23:59:41.489Z,99431
